sensor_id;sensor_type;location;lat;lon;timestamp;P1;durP1;ratioP1;P2;durP2;ratioP2
75890;SDS011;64571;47.512;19.054;2023-11-19T00:02:07;9.27;;;4.30;;
75890;SDS011;64571;47.512;19.054;2023-11-19T00:05:10;10.70;;;4.55;;
75890;SDS011;64571;47.512;19.054;2023-11-19T00:08:16;9.93;;;4.57;;
75890;SDS011;64571;47.512;19.054;2023-11-19T00:11:18;10.93;;;4.65;;
75890;SDS011;64571;47.512;19.054;2023-11-19T00:14:21;9.93;;;4.32;;
75890;SDS011;64571;47.512;19.054;2023-11-19T00:17:23;9.48;;;4.12;;
75890;SDS011;64571;47.512;19.054;2023-11-19T00:20:26;9.52;;;4.32;;
75890;SDS011;64571;47.512;19.054;2023-11-19T00:23:29;12.37;;;4.00;;
75890;SDS011;64571;47.512;19.054;2023-11-19T00:26:31;12.73;;;4.82;;
75890;SDS011;64571;47.512;19.054;2023-11-19T00:29:34;10.70;;;4.28;;
75890;SDS011;64571;47.512;19.054;2023-11-19T00:32:36;12.15;;;4.75;;
75890;SDS011;64571;47.512;19.054;2023-11-19T00:35:40;16.40;;;5.30;;
75890;SDS011;64571;47.512;19.054;2023-11-19T00:38:43;11.50;;;4.60;;
75890;SDS011;64571;47.512;19.054;2023-11-19T00:41:45;12.85;;;4.57;;
75890;SDS011;64571;47.512;19.054;2023-11-19T00:44:48;10.95;;;4.35;;
75890;SDS011;64571;47.512;19.054;2023-11-19T00:47:53;10.70;;;4.05;;
75890;SDS011;64571;47.512;19.054;2023-11-19T00:50:55;10.57;;;4.68;;
75890;SDS011;64571;47.512;19.054;2023-11-19T00:53:58;11.07;;;4.63;;
75890;SDS011;64571;47.512;19.054;2023-11-19T00:57:01;12.57;;;5.68;;
75890;SDS011;64571;47.512;19.054;2023-11-19T01:00:07;11.40;;;4.85;;
75890;SDS011;64571;47.512;19.054;2023-11-19T01:03:30;12.27;;;4.47;;
75890;SDS011;64571;47.512;19.054;2023-11-19T01:06:33;9.60;;;4.87;;
75890;SDS011;64571;47.512;19.054;2023-11-19T01:09:36;11.73;;;4.77;;
75890;SDS011;64571;47.512;19.054;2023-11-19T01:12:39;11.60;;;4.57;;
75890;SDS011;64571;47.512;19.054;2023-11-19T01:15:41;11.50;;;4.65;;
75890;SDS011;64571;47.512;19.054;2023-11-19T01:18:44;12.52;;;4.30;;
75890;SDS011;64571;47.512;19.054;2023-11-19T01:21:49;11.95;;;4.80;;
75890;SDS011;64571;47.512;19.054;2023-11-19T01:24:54;12.73;;;4.13;;
75890;SDS011;64571;47.512;19.054;2023-11-19T01:27:57;10.75;;;4.20;;
75890;SDS011;64571;47.512;19.054;2023-11-19T01:31:00;10.20;;;4.20;;
75890;SDS011;64571;47.512;19.054;2023-11-19T01:34:03;10.85;;;4.50;;
75890;SDS011;64571;47.512;19.054;2023-11-19T01:37:06;12.35;;;5.03;;
75890;SDS011;64571;47.512;19.054;2023-11-19T01:40:08;10.57;;;4.60;;
75890;SDS011;64571;47.512;19.054;2023-11-19T01:43:30;11.15;;;4.60;;
75890;SDS011;64571;47.512;19.054;2023-11-19T01:46:35;10.90;;;4.57;;
75890;SDS011;64571;47.512;19.054;2023-11-19T01:49:38;10.45;;;4.40;;
75890;SDS011;64571;47.512;19.054;2023-11-19T01:52:40;12.13;;;5.43;;
75890;SDS011;64571;47.512;19.054;2023-11-19T01:55:43;11.73;;;4.40;;
75890;SDS011;64571;47.512;19.054;2023-11-19T01:58:46;11.52;;;5.18;;
75890;SDS011;64571;47.512;19.054;2023-11-19T02:01:51;13.68;;;4.87;;
75890;SDS011;64571;47.512;19.054;2023-11-19T02:05:02;12.73;;;6.00;;
75890;SDS011;64571;47.512;19.054;2023-11-19T02:08:05;11.48;;;5.35;;
75890;SDS011;64571;47.512;19.054;2023-11-19T02:11:08;14.13;;;5.57;;
75890;SDS011;64571;47.512;19.054;2023-11-19T02:14:10;13.25;;;5.22;;
75890;SDS011;64571;47.512;19.054;2023-11-19T02:17:28;14.05;;;6.05;;
75890;SDS011;64571;47.512;19.054;2023-11-19T02:20:36;15.52;;;6.55;;
75890;SDS011;64571;47.512;19.054;2023-11-19T02:23:39;12.15;;;6.03;;
75890;SDS011;64571;47.512;19.054;2023-11-19T02:26:47;15.40;;;5.97;;
75890;SDS011;64571;47.512;19.054;2023-11-19T02:29:58;15.98;;;6.07;;
75890;SDS011;64571;47.512;19.054;2023-11-19T02:33:01;14.07;;;6.45;;
75890;SDS011;64571;47.512;19.054;2023-11-19T02:36:08;14.40;;;6.55;;
75890;SDS011;64571;47.512;19.054;2023-11-19T02:39:11;15.63;;;6.82;;
75890;SDS011;64571;47.512;19.054;2023-11-19T02:42:15;17.47;;;7.13;;
75890;SDS011;64571;47.512;19.054;2023-11-19T02:45:17;16.73;;;6.40;;
75890;SDS011;64571;47.512;19.054;2023-11-19T02:48:20;14.70;;;6.72;;
75890;SDS011;64571;47.512;19.054;2023-11-19T02:51:23;15.02;;;6.53;;
75890;SDS011;64571;47.512;19.054;2023-11-19T02:54:26;13.90;;;5.82;;
75890;SDS011;64571;47.512;19.054;2023-11-19T02:57:32;14.67;;;6.23;;
75890;SDS011;64571;47.512;19.054;2023-11-19T03:00:36;16.23;;;6.03;;
75890;SDS011;64571;47.512;19.054;2023-11-19T03:03:44;13.80;;;6.45;;
75890;SDS011;64571;47.512;19.054;2023-11-19T03:06:56;13.73;;;5.85;;
75890;SDS011;64571;47.512;19.054;2023-11-19T03:09:59;13.90;;;6.18;;
75890;SDS011;64571;47.512;19.054;2023-11-19T03:13:02;14.87;;;6.53;;
75890;SDS011;64571;47.512;19.054;2023-11-19T03:16:05;16.45;;;7.35;;
75890;SDS011;64571;47.512;19.054;2023-11-19T03:19:08;15.32;;;6.45;;
75890;SDS011;64571;47.512;19.054;2023-11-19T03:22:10;16.35;;;5.90;;
75890;SDS011;64571;47.512;19.054;2023-11-19T03:25:13;15.05;;;6.60;;
75890;SDS011;64571;47.512;19.054;2023-11-19T03:28:15;13.93;;;6.87;;
75890;SDS011;64571;47.512;19.054;2023-11-19T03:31:18;15.73;;;6.65;;
75890;SDS011;64571;47.512;19.054;2023-11-19T03:34:21;15.70;;;6.72;;
75890;SDS011;64571;47.512;19.054;2023-11-19T03:37:24;13.23;;;6.22;;
75890;SDS011;64571;47.512;19.054;2023-11-19T03:40:27;14.90;;;6.20;;
75890;SDS011;64571;47.512;19.054;2023-11-19T03:43:31;15.47;;;6.97;;
75890;SDS011;64571;47.512;19.054;2023-11-19T03:46:33;15.95;;;7.28;;
75890;SDS011;64571;47.512;19.054;2023-11-19T03:49:37;15.88;;;7.10;;
75890;SDS011;64571;47.512;19.054;2023-11-19T03:52:40;16.20;;;6.95;;
75890;SDS011;64571;47.512;19.054;2023-11-19T03:55:46;17.40;;;7.50;;
75890;SDS011;64571;47.512;19.054;2023-11-19T03:58:48;13.77;;;6.37;;
75890;SDS011;64571;47.512;19.054;2023-11-19T04:01:51;14.25;;;7.15;;
75890;SDS011;64571;47.512;19.054;2023-11-19T04:04:56;18.52;;;7.22;;
75890;SDS011;64571;47.512;19.054;2023-11-19T04:07:59;16.40;;;6.60;;
75890;SDS011;64571;47.512;19.054;2023-11-19T04:11:03;16.30;;;7.55;;
75890;SDS011;64571;47.512;19.054;2023-11-19T04:14:06;17.43;;;6.60;;
75890;SDS011;64571;47.512;19.054;2023-11-19T04:17:09;14.85;;;7.05;;
75890;SDS011;64571;47.512;19.054;2023-11-19T04:20:11;16.40;;;7.20;;
75890;SDS011;64571;47.512;19.054;2023-11-19T04:23:17;14.43;;;7.05;;
75890;SDS011;64571;47.512;19.054;2023-11-19T04:26:19;15.32;;;6.10;;
75890;SDS011;64571;47.512;19.054;2023-11-19T04:29:22;14.37;;;7.03;;
75890;SDS011;64571;47.512;19.054;2023-11-19T04:32:25;14.75;;;6.50;;
75890;SDS011;64571;47.512;19.054;2023-11-19T04:35:29;14.43;;;6.70;;
75890;SDS011;64571;47.512;19.054;2023-11-19T04:38:31;17.02;;;6.55;;
75890;SDS011;64571;47.512;19.054;2023-11-19T04:41:35;16.30;;;7.22;;
75890;SDS011;64571;47.512;19.054;2023-11-19T04:44:38;15.60;;;7.07;;
75890;SDS011;64571;47.512;19.054;2023-11-19T04:47:41;19.83;;;7.18;;
75890;SDS011;64571;47.512;19.054;2023-11-19T04:50:43;16.33;;;7.68;;
75890;SDS011;64571;47.512;19.054;2023-11-19T04:53:46;16.00;;;6.82;;
75890;SDS011;64571;47.512;19.054;2023-11-19T04:56:49;14.70;;;7.03;;
75890;SDS011;64571;47.512;19.054;2023-11-19T04:59:51;16.50;;;6.27;;
75890;SDS011;64571;47.512;19.054;2023-11-19T05:02:54;13.38;;;6.15;;
75890;SDS011;64571;47.512;19.054;2023-11-19T05:05:57;17.25;;;6.28;;
75890;SDS011;64571;47.512;19.054;2023-11-19T05:09:00;13.52;;;5.22;;
75890;SDS011;64571;47.512;19.054;2023-11-19T05:12:08;16.02;;;5.70;;
75890;SDS011;64571;47.512;19.054;2023-11-19T05:15:14;15.87;;;6.43;;
75890;SDS011;64571;47.512;19.054;2023-11-19T05:18:16;13.38;;;5.65;;
75890;SDS011;64571;47.512;19.054;2023-11-19T05:21:19;12.98;;;5.60;;
75890;SDS011;64571;47.512;19.054;2023-11-19T05:24:21;14.48;;;6.57;;
75890;SDS011;64571;47.512;19.054;2023-11-19T05:27:24;13.48;;;5.18;;
75890;SDS011;64571;47.512;19.054;2023-11-19T05:30:26;15.27;;;5.47;;
75890;SDS011;64571;47.512;19.054;2023-11-19T05:33:29;13.93;;;5.15;;
75890;SDS011;64571;47.512;19.054;2023-11-19T05:36:33;17.00;;;6.40;;
75890;SDS011;64571;47.512;19.054;2023-11-19T05:39:35;13.43;;;6.00;;
75890;SDS011;64571;47.512;19.054;2023-11-19T05:42:38;14.73;;;5.90;;
75890;SDS011;64571;47.512;19.054;2023-11-19T05:45:40;15.87;;;6.23;;
75890;SDS011;64571;47.512;19.054;2023-11-19T05:48:43;14.20;;;5.68;;
75890;SDS011;64571;47.512;19.054;2023-11-19T05:51:47;16.17;;;5.75;;
75890;SDS011;64571;47.512;19.054;2023-11-19T05:54:50;14.23;;;5.72;;
75890;SDS011;64571;47.512;19.054;2023-11-19T05:57:54;12.48;;;5.75;;
75890;SDS011;64571;47.512;19.054;2023-11-19T06:00:57;15.50;;;6.03;;
75890;SDS011;64571;47.512;19.054;2023-11-19T06:04:03;14.73;;;6.43;;
75890;SDS011;64571;47.512;19.054;2023-11-19T06:07:06;15.25;;;6.03;;
75890;SDS011;64571;47.512;19.054;2023-11-19T06:10:09;14.38;;;6.18;;
75890;SDS011;64571;47.512;19.054;2023-11-19T06:13:13;14.65;;;5.43;;
75890;SDS011;64571;47.512;19.054;2023-11-19T06:16:18;14.23;;;5.57;;
75890;SDS011;64571;47.512;19.054;2023-11-19T06:19:20;17.42;;;6.60;;
75890;SDS011;64571;47.512;19.054;2023-11-19T06:22:23;14.80;;;6.55;;
75890;SDS011;64571;47.512;19.054;2023-11-19T06:25:26;12.20;;;5.35;;
75890;SDS011;64571;47.512;19.054;2023-11-19T06:28:28;13.45;;;6.18;;
75890;SDS011;64571;47.512;19.054;2023-11-19T06:31:31;14.60;;;6.23;;
75890;SDS011;64571;47.512;19.054;2023-11-19T06:34:34;14.65;;;6.35;;
75890;SDS011;64571;47.512;19.054;2023-11-19T06:37:38;16.92;;;6.47;;
75890;SDS011;64571;47.512;19.054;2023-11-19T06:40:41;15.52;;;7.15;;
75890;SDS011;64571;47.512;19.054;2023-11-19T06:43:43;13.60;;;6.65;;
75890;SDS011;64571;47.512;19.054;2023-11-19T06:46:48;14.57;;;7.13;;
75890;SDS011;64571;47.512;19.054;2023-11-19T06:49:51;13.62;;;6.65;;
75890;SDS011;64571;47.512;19.054;2023-11-19T06:52:54;15.13;;;7.10;;
75890;SDS011;64571;47.512;19.054;2023-11-19T06:55:56;16.20;;;6.90;;
75890;SDS011;64571;47.512;19.054;2023-11-19T06:58:59;17.48;;;7.50;;
75890;SDS011;64571;47.512;19.054;2023-11-19T07:02:01;18.33;;;7.10;;
75890;SDS011;64571;47.512;19.054;2023-11-19T07:05:05;15.73;;;6.60;;
75890;SDS011;64571;47.512;19.054;2023-11-19T07:08:07;13.48;;;6.10;;
75890;SDS011;64571;47.512;19.054;2023-11-19T07:11:11;15.50;;;7.53;;
75890;SDS011;64571;47.512;19.054;2023-11-19T07:14:14;16.12;;;6.97;;
75890;SDS011;64571;47.512;19.054;2023-11-19T07:17:16;15.10;;;7.67;;
75890;SDS011;64571;47.512;19.054;2023-11-19T07:20:19;17.92;;;7.62;;
75890;SDS011;64571;47.512;19.054;2023-11-19T07:23:22;18.85;;;9.02;;
75890;SDS011;64571;47.512;19.054;2023-11-19T07:26:25;19.20;;;8.05;;
75890;SDS011;64571;47.512;19.054;2023-11-19T07:29:29;16.30;;;8.38;;
75890;SDS011;64571;47.512;19.054;2023-11-19T07:32:31;21.33;;;8.97;;
75890;SDS011;64571;47.512;19.054;2023-11-19T07:35:35;23.90;;;11.68;;
75890;SDS011;64571;47.512;19.054;2023-11-19T07:38:37;22.25;;;9.57;;
75890;SDS011;64571;47.512;19.054;2023-11-19T07:41:40;19.90;;;8.90;;
75890;SDS011;64571;47.512;19.054;2023-11-19T07:44:43;17.80;;;7.82;;
75890;SDS011;64571;47.512;19.054;2023-11-19T07:47:46;19.80;;;7.53;;
75890;SDS011;64571;47.512;19.054;2023-11-19T07:50:49;22.58;;;9.05;;
75890;SDS011;64571;47.512;19.054;2023-11-19T07:53:52;18.67;;;8.30;;
75890;SDS011;64571;47.512;19.054;2023-11-19T07:56:55;22.50;;;9.88;;
75890;SDS011;64571;47.512;19.054;2023-11-19T07:59:58;22.90;;;9.23;;
75890;SDS011;64571;47.512;19.054;2023-11-19T08:03:00;22.90;;;9.37;;
75890;SDS011;64571;47.512;19.054;2023-11-19T08:06:03;20.95;;;8.77;;
75890;SDS011;64571;47.512;19.054;2023-11-19T08:09:06;19.05;;;9.25;;
75890;SDS011;64571;47.512;19.054;2023-11-19T08:12:09;16.52;;;8.57;;
75890;SDS011;64571;47.512;19.054;2023-11-19T08:15:11;16.42;;;7.93;;
75890;SDS011;64571;47.512;19.054;2023-11-19T08:18:14;23.30;;;8.23;;
75890;SDS011;64571;47.512;19.054;2023-11-19T08:21:16;18.17;;;8.02;;
75890;SDS011;64571;47.512;19.054;2023-11-19T08:24:19;19.17;;;8.95;;
75890;SDS011;64571;47.512;19.054;2023-11-19T08:27:22;17.73;;;8.13;;
75890;SDS011;64571;47.512;19.054;2023-11-19T08:30:29;19.25;;;8.73;;
75890;SDS011;64571;47.512;19.054;2023-11-19T08:33:32;21.13;;;10.30;;
75890;SDS011;64571;47.512;19.054;2023-11-19T08:36:35;21.35;;;10.75;;
75890;SDS011;64571;47.512;19.054;2023-11-19T08:39:37;20.15;;;8.93;;
75890;SDS011;64571;47.512;19.054;2023-11-19T08:42:41;20.25;;;8.98;;
75890;SDS011;64571;47.512;19.054;2023-11-19T08:45:43;19.92;;;9.82;;
75890;SDS011;64571;47.512;19.054;2023-11-19T08:48:46;21.87;;;10.50;;
75890;SDS011;64571;47.512;19.054;2023-11-19T08:51:48;19.52;;;9.40;;
75890;SDS011;64571;47.512;19.054;2023-11-19T08:54:51;22.87;;;10.18;;
75890;SDS011;64571;47.512;19.054;2023-11-19T08:57:53;22.13;;;9.15;;
75890;SDS011;64571;47.512;19.054;2023-11-19T09:00:56;20.40;;;9.73;;
75890;SDS011;64571;47.512;19.054;2023-11-19T09:03:59;19.73;;;8.07;;
75890;SDS011;64571;47.512;19.054;2023-11-19T09:07:02;20.25;;;9.15;;
75890;SDS011;64571;47.512;19.054;2023-11-19T09:10:05;15.45;;;7.93;;
75890;SDS011;64571;47.512;19.054;2023-11-19T09:13:11;18.05;;;8.68;;
75890;SDS011;64571;47.512;19.054;2023-11-19T09:16:13;17.75;;;9.30;;
75890;SDS011;64571;47.512;19.054;2023-11-19T09:19:16;18.37;;;8.47;;
75890;SDS011;64571;47.512;19.054;2023-11-19T09:22:19;19.15;;;9.02;;
75890;SDS011;64571;47.512;19.054;2023-11-19T09:25:22;19.95;;;9.93;;
75890;SDS011;64571;47.512;19.054;2023-11-19T09:28:24;18.75;;;8.32;;
75890;SDS011;64571;47.512;19.054;2023-11-19T09:31:27;22.10;;;8.90;;
75890;SDS011;64571;47.512;19.054;2023-11-19T09:34:29;21.67;;;8.13;;
75890;SDS011;64571;47.512;19.054;2023-11-19T09:37:32;17.37;;;7.53;;
75890;SDS011;64571;47.512;19.054;2023-11-19T09:40:35;18.75;;;7.87;;
75890;SDS011;64571;47.512;19.054;2023-11-19T09:43:38;17.98;;;8.27;;
75890;SDS011;64571;47.512;19.054;2023-11-19T09:46:41;16.12;;;8.02;;
75890;SDS011;64571;47.512;19.054;2023-11-19T09:49:44;17.30;;;7.93;;
75890;SDS011;64571;47.512;19.054;2023-11-19T09:52:47;20.85;;;8.70;;
75890;SDS011;64571;47.512;19.054;2023-11-19T09:55:50;18.27;;;8.75;;
75890;SDS011;64571;47.512;19.054;2023-11-19T09:58:53;19.50;;;8.30;;
75890;SDS011;64571;47.512;19.054;2023-11-19T10:01:56;23.42;;;9.80;;
75890;SDS011;64571;47.512;19.054;2023-11-19T10:04:59;19.73;;;8.70;;
75890;SDS011;64571;47.512;19.054;2023-11-19T10:08:06;20.23;;;8.75;;
75890;SDS011;64571;47.512;19.054;2023-11-19T10:11:10;19.65;;;9.63;;
75890;SDS011;64571;47.512;19.054;2023-11-19T10:14:15;17.55;;;8.23;;
75890;SDS011;64571;47.512;19.054;2023-11-19T10:17:18;16.87;;;8.70;;
75890;SDS011;64571;47.512;19.054;2023-11-19T10:20:21;17.27;;;8.37;;
75890;SDS011;64571;47.512;19.054;2023-11-19T10:23:24;20.00;;;9.75;;
75890;SDS011;64571;47.512;19.054;2023-11-19T10:26:27;21.80;;;10.32;;
75890;SDS011;64571;47.512;19.054;2023-11-19T10:29:31;20.10;;;9.43;;
75890;SDS011;64571;47.512;19.054;2023-11-19T10:32:33;19.67;;;9.40;;
75890;SDS011;64571;47.512;19.054;2023-11-19T10:35:36;19.80;;;9.13;;
75890;SDS011;64571;47.512;19.054;2023-11-19T10:38:59;18.65;;;8.85;;
75890;SDS011;64571;47.512;19.054;2023-11-19T10:42:25;18.00;;;9.10;;
75890;SDS011;64571;47.512;19.054;2023-11-19T10:45:24;17.23;;;8.55;;
75890;SDS011;64571;47.512;19.054;2023-11-19T10:48:27;17.87;;;9.20;;
75890;SDS011;64571;47.512;19.054;2023-11-19T10:51:29;20.77;;;9.13;;
75890;SDS011;64571;47.512;19.054;2023-11-19T10:54:34;20.15;;;9.98;;
75890;SDS011;64571;47.512;19.054;2023-11-19T10:57:36;20.23;;;9.55;;
75890;SDS011;64571;47.512;19.054;2023-11-19T11:00:46;21.87;;;9.45;;
75890;SDS011;64571;47.512;19.054;2023-11-19T11:03:53;20.95;;;10.50;;
75890;SDS011;64571;47.512;19.054;2023-11-19T11:06:58;18.80;;;9.57;;
75890;SDS011;64571;47.512;19.054;2023-11-19T11:10:04;20.02;;;9.77;;
75890;SDS011;64571;47.512;19.054;2023-11-19T11:13:10;22.80;;;10.35;;
75890;SDS011;64571;47.512;19.054;2023-11-19T11:16:17;24.65;;;9.77;;
75890;SDS011;64571;47.512;19.054;2023-11-19T11:19:21;18.85;;;9.98;;
75890;SDS011;64571;47.512;19.054;2023-11-19T11:22:25;25.43;;;9.77;;
75890;SDS011;64571;47.512;19.054;2023-11-19T11:32:20;24.27;;;10.55;;
75890;SDS011;64571;47.512;19.054;2023-11-19T11:38:44;20.50;;;10.23;;
75890;SDS011;64571;47.512;19.054;2023-11-19T11:42:18;20.45;;;8.82;;
75890;SDS011;64571;47.512;19.054;2023-11-19T11:45:39;26.20;;;12.02;;
75890;SDS011;64571;47.512;19.054;2023-11-19T11:48:45;22.40;;;10.13;;
75890;SDS011;64571;47.512;19.054;2023-11-19T11:51:57;21.52;;;11.20;;
75890;SDS011;64571;47.512;19.054;2023-11-19T11:55:06;22.53;;;10.40;;
75890;SDS011;64571;47.512;19.054;2023-11-19T11:58:12;20.27;;;10.00;;
75890;SDS011;64571;47.512;19.054;2023-11-19T12:01:16;17.20;;;9.40;;
75890;SDS011;64571;47.512;19.054;2023-11-19T12:04:25;21.10;;;9.77;;
75890;SDS011;64571;47.512;19.054;2023-11-19T12:07:29;20.40;;;10.45;;
75890;SDS011;64571;47.512;19.054;2023-11-19T12:10:32;16.07;;;8.57;;
75890;SDS011;64571;47.512;19.054;2023-11-19T12:13:44;20.23;;;9.68;;
75890;SDS011;64571;47.512;19.054;2023-11-19T12:16:50;20.88;;;8.95;;
75890;SDS011;64571;47.512;19.054;2023-11-19T12:19:53;20.25;;;9.45;;
75890;SDS011;64571;47.512;19.054;2023-11-19T16:06:48;15.63;;;7.90;;
75890;SDS011;64571;47.512;19.054;2023-11-19T16:09:50;19.12;;;8.93;;
75890;SDS011;64571;47.512;19.054;2023-11-19T16:12:53;19.03;;;9.67;;
75890;SDS011;64571;47.512;19.054;2023-11-19T16:15:56;15.52;;;7.65;;
75890;SDS011;64571;47.512;19.054;2023-11-19T16:18:58;17.85;;;8.32;;
75890;SDS011;64571;47.512;19.054;2023-11-19T16:22:01;20.83;;;9.70;;
75890;SDS011;64571;47.512;19.054;2023-11-19T16:25:12;20.08;;;8.70;;
75890;SDS011;64571;47.512;19.054;2023-11-19T16:28:17;18.97;;;9.17;;
75890;SDS011;64571;47.512;19.054;2023-11-19T16:31:22;19.27;;;8.98;;
75890;SDS011;64571;47.512;19.054;2023-11-19T16:34:25;17.83;;;8.45;;
75890;SDS011;64571;47.512;19.054;2023-11-19T16:37:27;21.62;;;9.45;;
75890;SDS011;64571;47.512;19.054;2023-11-19T16:40:30;19.58;;;8.52;;
75890;SDS011;64571;47.512;19.054;2023-11-19T16:43:32;18.70;;;8.97;;
75890;SDS011;64571;47.512;19.054;2023-11-19T16:46:35;21.33;;;9.30;;
75890;SDS011;64571;47.512;19.054;2023-11-19T16:49:39;18.85;;;9.52;;
75890;SDS011;64571;47.512;19.054;2023-11-19T16:52:41;19.00;;;8.85;;
75890;SDS011;64571;47.512;19.054;2023-11-19T16:55:44;17.02;;;8.50;;
75890;SDS011;64571;47.512;19.054;2023-11-19T16:58:47;19.80;;;9.23;;
75890;SDS011;64571;47.512;19.054;2023-11-19T17:01:50;19.33;;;9.02;;
75890;SDS011;64571;47.512;19.054;2023-11-19T17:04:52;18.58;;;8.65;;
75890;SDS011;64571;47.512;19.054;2023-11-19T17:07:55;20.98;;;9.30;;
75890;SDS011;64571;47.512;19.054;2023-11-19T17:11:01;21.33;;;10.55;;
75890;SDS011;64571;47.512;19.054;2023-11-19T17:14:05;20.67;;;9.37;;
75890;SDS011;64571;47.512;19.054;2023-11-19T17:17:08;20.60;;;9.23;;
75890;SDS011;64571;47.512;19.054;2023-11-19T17:20:11;19.10;;;8.77;;
75890;SDS011;64571;47.512;19.054;2023-11-19T17:23:15;19.98;;;8.70;;
75890;SDS011;64571;47.512;19.054;2023-11-19T17:26:18;16.98;;;8.13;;
75890;SDS011;64571;47.512;19.054;2023-11-19T17:29:20;16.70;;;8.97;;
75890;SDS011;64571;47.512;19.054;2023-11-19T17:32:24;19.95;;;9.60;;
75890;SDS011;64571;47.512;19.054;2023-11-19T17:35:27;17.42;;;8.45;;
75890;SDS011;64571;47.512;19.054;2023-11-19T17:38:31;16.37;;;7.87;;
75890;SDS011;64571;47.512;19.054;2023-11-19T17:41:34;17.70;;;8.82;;
75890;SDS011;64571;47.512;19.054;2023-11-19T17:44:36;15.03;;;7.93;;
75890;SDS011;64571;47.512;19.054;2023-11-19T17:47:39;16.75;;;8.35;;
75890;SDS011;64571;47.512;19.054;2023-11-19T17:50:42;17.48;;;9.05;;
75890;SDS011;64571;47.512;19.054;2023-11-19T17:53:45;17.30;;;8.80;;
75890;SDS011;64571;47.512;19.054;2023-11-19T17:56:48;21.15;;;8.65;;
75890;SDS011;64571;47.512;19.054;2023-11-19T17:59:51;17.57;;;8.57;;
75890;SDS011;64571;47.512;19.054;2023-11-19T18:02:54;19.27;;;8.77;;
75890;SDS011;64571;47.512;19.054;2023-11-19T18:05:57;19.70;;;9.05;;
75890;SDS011;64571;47.512;19.054;2023-11-19T18:09:00;18.85;;;8.70;;
75890;SDS011;64571;47.512;19.054;2023-11-19T18:12:04;20.10;;;9.63;;
75890;SDS011;64571;47.512;19.054;2023-11-19T18:15:17;20.57;;;9.90;;
75890;SDS011;64571;47.512;19.054;2023-11-19T18:18:20;22.52;;;11.35;;
75890;SDS011;64571;47.512;19.054;2023-11-19T18:21:23;20.20;;;9.45;;
75890;SDS011;64571;47.512;19.054;2023-11-19T18:24:26;17.62;;;8.40;;
75890;SDS011;64571;47.512;19.054;2023-11-19T18:27:29;17.70;;;8.85;;
75890;SDS011;64571;47.512;19.054;2023-11-19T18:30:31;17.77;;;8.90;;
75890;SDS011;64571;47.512;19.054;2023-11-19T18:33:34;21.87;;;9.68;;
75890;SDS011;64571;47.512;19.054;2023-11-19T18:36:38;19.37;;;9.13;;
75890;SDS011;64571;47.512;19.054;2023-11-19T18:39:40;18.02;;;9.48;;
75890;SDS011;64571;47.512;19.054;2023-11-19T18:42:44;18.17;;;8.88;;
75890;SDS011;64571;47.512;19.054;2023-11-19T18:45:46;18.53;;;9.07;;
75890;SDS011;64571;47.512;19.054;2023-11-19T18:48:49;15.88;;;8.15;;
75890;SDS011;64571;47.512;19.054;2023-11-19T18:51:53;18.95;;;9.00;;
75890;SDS011;64571;47.512;19.054;2023-11-19T18:54:56;18.20;;;8.98;;
75890;SDS011;64571;47.512;19.054;2023-11-19T18:57:59;16.83;;;8.27;;
75890;SDS011;64571;47.512;19.054;2023-11-19T19:01:01;17.57;;;9.07;;
75890;SDS011;64571;47.512;19.054;2023-11-19T19:04:04;17.80;;;8.57;;
75890;SDS011;64571;47.512;19.054;2023-11-19T19:07:12;17.80;;;9.00;;
75890;SDS011;64571;47.512;19.054;2023-11-19T19:10:14;17.45;;;8.45;;
75890;SDS011;64571;47.512;19.054;2023-11-19T19:13:17;16.75;;;9.10;;
75890;SDS011;64571;47.512;19.054;2023-11-19T19:16:20;17.30;;;9.23;;
75890;SDS011;64571;47.512;19.054;2023-11-19T19:19:22;16.60;;;8.07;;
75890;SDS011;64571;47.512;19.054;2023-11-19T19:22:26;16.33;;;8.18;;
75890;SDS011;64571;47.512;19.054;2023-11-19T19:25:28;17.65;;;8.68;;
75890;SDS011;64571;47.512;19.054;2023-11-19T19:28:31;15.70;;;8.07;;
75890;SDS011;64571;47.512;19.054;2023-11-19T19:31:33;16.70;;;8.43;;
75890;SDS011;64571;47.512;19.054;2023-11-19T19:34:36;18.27;;;8.77;;
75890;SDS011;64571;47.512;19.054;2023-11-19T19:37:39;19.20;;;10.20;;
75890;SDS011;64571;47.512;19.054;2023-11-19T19:40:41;17.00;;;9.05;;
75890;SDS011;64571;47.512;19.054;2023-11-19T19:43:44;20.25;;;10.43;;
75890;SDS011;64571;47.512;19.054;2023-11-19T19:46:46;18.00;;;9.67;;
75890;SDS011;64571;47.512;19.054;2023-11-19T19:49:49;20.35;;;10.85;;
75890;SDS011;64571;47.512;19.054;2023-11-19T19:52:52;22.50;;;10.68;;
75890;SDS011;64571;47.512;19.054;2023-11-19T19:55:56;21.60;;;10.98;;
75890;SDS011;64571;47.512;19.054;2023-11-19T19:58:58;19.98;;;9.95;;
75890;SDS011;64571;47.512;19.054;2023-11-19T20:02:01;21.50;;;10.37;;
75890;SDS011;64571;47.512;19.054;2023-11-19T20:05:04;20.60;;;10.63;;
75890;SDS011;64571;47.512;19.054;2023-11-19T20:08:13;19.35;;;9.93;;
75890;SDS011;64571;47.512;19.054;2023-11-19T20:11:16;23.33;;;10.77;;
75890;SDS011;64571;47.512;19.054;2023-11-19T20:14:19;21.95;;;10.43;;
75890;SDS011;64571;47.512;19.054;2023-11-19T20:17:26;26.33;;;11.67;;
75890;SDS011;64571;47.512;19.054;2023-11-19T20:20:29;21.27;;;10.98;;
75890;SDS011;64571;47.512;19.054;2023-11-19T20:23:33;20.83;;;10.25;;
75890;SDS011;64571;47.512;19.054;2023-11-19T20:26:35;17.58;;;8.98;;
75890;SDS011;64571;47.512;19.054;2023-11-19T20:29:39;16.40;;;8.32;;
75890;SDS011;64571;47.512;19.054;2023-11-19T20:32:42;17.43;;;8.73;;
75890;SDS011;64571;47.512;19.054;2023-11-19T20:35:45;19.70;;;9.75;;
75890;SDS011;64571;47.512;19.054;2023-11-19T20:38:47;18.37;;;9.27;;
75890;SDS011;64571;47.512;19.054;2023-11-19T20:41:52;21.80;;;9.82;;
75890;SDS011;64571;47.512;19.054;2023-11-19T20:44:55;20.17;;;10.40;;
75890;SDS011;64571;47.512;19.054;2023-11-19T20:47:58;19.60;;;9.80;;
75890;SDS011;64571;47.512;19.054;2023-11-19T20:51:00;19.80;;;9.57;;
75890;SDS011;64571;47.512;19.054;2023-11-19T20:54:03;18.77;;;10.00;;
75890;SDS011;64571;47.512;19.054;2023-11-19T20:57:08;21.12;;;10.27;;
75890;SDS011;64571;47.512;19.054;2023-11-19T21:00:11;19.75;;;9.95;;
75890;SDS011;64571;47.512;19.054;2023-11-19T21:03:15;19.83;;;10.23;;
75890;SDS011;64571;47.512;19.054;2023-11-19T21:06:18;16.98;;;9.20;;
75890;SDS011;64571;47.512;19.054;2023-11-19T21:09:22;20.08;;;10.82;;
75890;SDS011;64571;47.512;19.054;2023-11-19T21:12:25;19.75;;;10.75;;
75890;SDS011;64571;47.512;19.054;2023-11-19T21:15:28;20.83;;;11.70;;
75890;SDS011;64571;47.512;19.054;2023-11-19T21:18:33;20.60;;;10.37;;
75890;SDS011;64571;47.512;19.054;2023-11-19T21:21:36;21.95;;;10.98;;
75890;SDS011;64571;47.512;19.054;2023-11-19T21:24:40;20.12;;;10.52;;
75890;SDS011;64571;47.512;19.054;2023-11-19T21:27:44;19.12;;;10.57;;
75890;SDS011;64571;47.512;19.054;2023-11-19T21:30:48;23.65;;;11.90;;
75890;SDS011;64571;47.512;19.054;2023-11-19T21:33:51;26.67;;;11.43;;
75890;SDS011;64571;47.512;19.054;2023-11-19T21:36:53;22.73;;;10.52;;
75890;SDS011;64571;47.512;19.054;2023-11-19T21:39:56;20.40;;;11.18;;
75890;SDS011;64571;47.512;19.054;2023-11-19T21:42:59;23.40;;;11.73;;
75890;SDS011;64571;47.512;19.054;2023-11-19T21:46:02;22.13;;;11.25;;
75890;SDS011;64571;47.512;19.054;2023-11-19T21:49:05;23.93;;;12.80;;